Time;durP1;ratioP1;P1;durP2;ratioP2;P2;SDS_P1;SDS_P2;PMS_P1;PMS_P2;Temp;Humidity;BMP_temperature;BMP_pressure;BME280_temperature;BME280_humidity;BME280_pressure;Samples;Min_cycle;Max_cycle;Signal;HPM_P1;HPM_P2
2022/09/13 00:01:30;;;;;;;;;;;12.20;99.90;;;;;;5054233;28;19923;-80
2022/09/13 00:03:56;;;;;;;;;;;12.30;99.90;;;;;;5044006;28;20413;-80
2022/09/13 00:06:22;;;;;;;;;;;12.30;99.90;;;;;;5054894;28;20007;-81
2022/09/13 00:08:48;;;;;;;;;;;12.20;99.90;;;;;;5054021;28;19997;-79
2022/09/13 00:11:15;;;;;;;;;;;12.30;99.90;;;;;;5057151;28;20008;-79
2022/09/13 00:13:41;;;;;;;;;;;12.30;99.90;;;;;;5050922;28;19951;-81
2022/09/13 00:16:10;;;;;;;;;;;12.30;99.90;;;;;;5041276;28;19913;-81
2022/09/13 00:18:35;;;;;;;;;;;12.30;99.90;;;;;;5022133;28;19947;-81
2022/09/13 00:21:09;;;;;;;;;;;12.30;99.90;;;;;;5056476;28;20711;-80
2022/09/13 00:23:35;;;;;;;;;;;12.30;99.90;;;;;;5054426;28;19927;-80
2022/09/13 00:26:04;;;;;;;;;;;12.30;99.90;;;;;;5026201;28;20450;-80
2022/09/13 00:28:30;;;;;;;;;;;12.20;99.90;;;;;;5052241;28;19961;-80
2022/09/13 00:30:58;;;;;;;;;;;12.30;99.90;;;;;;5051077;28;20009;-80
2022/09/13 00:33:23;;;;;;;;;;;12.30;99.90;;;;;;5034460;28;19917;-78
2022/09/13 00:35:49;;;;;;;;;;;12.30;99.90;;;;;;5022804;28;19956;-80
2022/09/13 00:38:14;;;;;;;;;;;12.30;99.90;;;;;;5053650;28;19921;-80
2022/09/13 00:40:40;;;;;;;;;;;12.20;99.90;;;;;;5048171;28;20870;-81
2022/09/13 00:43:11;;;;;;;;;;;12.20;99.90;;;;;;5044387;28;19917;-80
2022/09/13 00:45:37;;;;;;;;;;;12.30;99.90;;;;;;5069070;28;19913;-80
2022/09/13 00:48:07;;;;;;;;;;;12.30;99.90;;;;;;5048084;28;19959;-80
2022/09/13 00:50:37;;;;;;;;;;;12.30;99.90;;;;;;5063084;28;19917;-81
2022/09/13 00:53:08;;;;;;;;;;;12.30;99.90;;;;;;5039742;28;19928;-79
2022/09/13 00:55:37;;;;;;;;;;;12.20;99.90;;;;;;5032700;28;19924;-80
2022/09/13 00:58:15;;;;;;;;;;;12.20;99.90;;;;;;5043466;28;19921;-80
2022/09/13 01:00:41;;;;;;;;;;;12.20;99.90;;;;;;5061306;28;20605;-79
2022/09/13 01:03:10;;;;;;;;;;;12.20;99.90;;;;;;5054097;28;19913;-81
2022/09/13 01:05:46;;;;;;;;;;;12.10;99.90;;;;;;5056536;28;19909;-81
2022/09/13 01:08:21;;;;;;;;;;;12.10;99.90;;;;;;5054606;28;19917;-80
2022/09/13 01:10:51;;;;;;;;;;;12.00;99.90;;;;;;5038803;28;19920;-80
2022/09/13 01:13:19;;;;;;;;;;;12.00;99.90;;;;;;5049919;28;19913;-79
2022/09/13 01:15:45;;;;;;;;;;;12.00;99.90;;;;;;5034856;28;19913;-80
2022/09/13 01:18:11;;;;;;;;;;;12.00;99.90;;;;;;5046041;28;19927;-80
2022/09/13 01:20:55;;;;;;;;;;;11.90;99.90;;;;;;5050410;28;19917;-80
2022/09/13 01:23:39;;;;;;;;;;;11.90;99.90;;;;;;5054271;28;19990;-78
2022/09/13 01:26:08;;;;;;;;;;;11.80;99.90;;;;;;5053837;28;19913;-79
2022/09/13 01:28:50;;;;;;;;;;;11.80;99.90;;;;;;5053249;28;19913;-80
2022/09/13 01:31:25;;;;;;;;;;;11.80;99.90;;;;;;5040676;28;19913;-80
2022/09/13 01:34:06;;;;;;;;;;;11.80;99.90;;;;;;5035948;28;19966;-81
2022/09/13 01:36:38;;;;;;;;;;;11.80;99.90;;;;;;5030915;28;19923;-80
2022/09/13 01:39:05;;;;;;;;;;;11.80;99.90;;;;;;5042972;28;19932;-80
2022/09/13 01:41:41;;;;;;;;;;;11.80;99.90;;;;;;5050932;28;19916;-80
2022/09/13 01:44:07;;;;;;;;;;;11.80;99.90;;;;;;5048017;28;19913;-80
2022/09/13 01:46:45;;;;;;;;;;;11.80;99.90;;;;;;5047351;28;20290;-80
2022/09/13 01:49:10;;;;;;;;;;;11.80;99.90;;;;;;5050476;28;20380;-81
2022/09/13 01:51:43;;;;;;;;;;;11.80;99.90;;;;;;5049025;28;19955;-79
2022/09/13 01:54:27;;;;;;;;;;;11.80;99.90;;;;;;5049410;28;19920;-79
2022/09/13 01:56:53;;;;;;;;;;;11.70;99.90;;;;;;5047099;28;19916;-79
2022/09/13 01:59:21;;;;;;;;;;;11.70;99.90;;;;;;5042354;28;19987;-79
2022/09/13 02:01:52;;;;;;;;;;;11.70;99.90;;;;;;5045842;28;19956;-79
2022/09/13 02:04:23;;;;;;;;;;;11.70;99.90;;;;;;5035554;28;20034;-78
2022/09/13 02:06:51;;;;;;;;;;;11.70;99.90;;;;;;5046479;28;19962;-79
2022/09/13 02:09:19;;;;;;;;;;;11.70;99.90;;;;;;5046580;28;20335;-79
2022/09/13 02:11:47;;;;;;;;;;;11.70;99.90;;;;;;5043130;28;20405;-79
2022/09/13 02:14:15;;;;;;;;;;;11.70;99.90;;;;;;5038030;28;19920;-80
2022/09/13 02:16:44;;;;;;;;;;;11.60;99.90;;;;;;5042631;28;19913;-79
2022/09/13 02:19:14;;;;;;;;;;;11.60;99.90;;;;;;5045936;28;19917;-79
2022/09/13 02:21:43;;;;;;;;;;;11.60;99.90;;;;;;5048844;28;19939;-80
2022/09/13 02:24:12;;;;;;;;;;;11.60;99.90;;;;;;5048790;28;19920;-79
2022/09/13 02:26:39;;;;;;;;;;;11.60;99.90;;;;;;5049358;28;20694;-79
2022/09/13 02:29:08;;;;;;;;;;;11.60;99.90;;;;;;5040934;28;19974;-79
2022/09/13 02:31:41;;;;;;;;;;;11.60;99.90;;;;;;5045550;28;19939;-80
2022/09/13 02:34:11;;;;;;;;;;;11.60;99.90;;;;;;5046419;28;20000;-80
2022/09/13 02:36:39;;;;;;;;;;;11.60;99.90;;;;;;5049855;28;20464;-79
2022/09/13 02:39:08;;;;;;;;;;;11.60;99.90;;;;;;5047921;28;19924;-80
2022/09/13 02:41:48;;;;;;;;;;;11.50;99.90;;;;;;5025133;28;20331;-79
2022/09/13 02:44:19;;;;;;;;;;;11.50;99.90;;;;;;5032472;28;19920;-78
2022/09/13 02:46:54;;;;;;;;;;;11.50;99.90;;;;;;5042913;28;19913;-80
2022/09/13 02:49:30;;;;;;;;;;;11.60;99.90;;;;;;5045910;28;20409;-79
2022/09/13 02:52:02;;;;;;;;;;;11.50;99.90;;;;;;5049835;28;19913;-79
2022/09/13 02:54:33;;;;;;;;;;;11.50;99.90;;;;;;5030639;28;19939;-79
2022/09/13 02:57:19;;;;;;;;;;;11.50;99.90;;;;;;5043603;28;19916;-79
2022/09/13 02:59:45;;;;;;;;;;;11.50;99.90;;;;;;5043788;28;19932;-79
2022/09/13 03:02:15;;;;;;;;;;;11.50;99.90;;;;;;5044698;28;19920;-79
2022/09/13 03:04:41;;;;;;;;;;;11.50;99.90;;;;;;5047609;28;19917;-79
2022/09/13 03:07:11;;;;;;;;;;;11.50;99.90;;;;;;5045709;28;20352;-78
2022/09/13 03:09:40;;;;;;;;;;;11.50;99.90;;;;;;5036857;28;19921;-79
2022/09/13 03:12:05;;;;;;;;;;;11.50;99.90;;;;;;5043597;28;19919;-80
2022/09/13 03:14:36;;;;;;;;;;;11.50;99.90;;;;;;5047680;28;20035;-80
2022/09/13 03:17:20;;;;;;;;;;;11.40;99.90;;;;;;5042541;28;20020;-79
2022/09/13 03:19:49;;;;;;;;;;;11.30;99.90;;;;;;5049442;28;19987;-80
2022/09/13 03:22:18;;;;;;;;;;;11.30;99.90;;;;;;5030622;28;19944;-80
2022/09/13 03:25:01;;;;;;;;;;;11.20;99.90;;;;;;5038267;28;19947;-79
2022/09/13 03:27:45;;;;;;;;;;;11.20;99.90;;;;;;5034330;28;19913;-79
2022/09/13 03:30:14;;;;;;;;;;;11.30;99.90;;;;;;5050369;28;19912;-80
2022/09/13 03:32:40;;;;;;;;;;;11.20;99.90;;;;;;5035580;28;20008;-80
2022/09/13 03:35:15;;;;;;;;;;;11.20;99.90;;;;;;5040244;28;19956;-79
2022/09/13 03:37:49;;;;;;;;;;;11.10;99.90;;;;;;5038686;28;19913;-78
2022/09/13 03:40:20;;;;;;;;;;;11.10;99.90;;;;;;5046252;28;20417;-80
2022/09/13 03:42:49;;;;;;;;;;;11.10;99.90;;;;;;5054108;28;19920;-79
2022/09/13 03:45:17;;;;;;;;;;;11.10;99.90;;;;;;5049351;28;19952;-81
2022/09/13 03:47:44;;;;;;;;;;;11.10;99.90;;;;;;5056551;28;19959;-79
2022/09/13 03:50:13;;;;;;;;;;;11.10;99.90;;;;;;5049280;28;19913;-79
2022/09/13 03:52:39;;;;;;;;;;;11.10;99.90;;;;;;5048066;28;19913;-81
2022/09/13 03:55:04;;;;;;;;;;;11.10;99.90;;;;;;5039463;28;19924;-82
2022/09/13 03:57:30;;;;;;;;;;;11.10;99.90;;;;;;5051398;28;19913;-80
2022/09/13 03:59:56;;;;;;;;;;;11.00;99.90;;;;;;5023358;28;19921;-80
2022/09/13 04:02:22;;;;;;;;;;;11.10;99.90;;;;;;5052130;28;19963;-81
2022/09/13 04:04:48;;;;;;;;;;;11.10;99.90;;;;;;5039560;28;19935;-79
2022/09/13 04:07:18;;;;;;;;;;;11.10;99.90;;;;;;5045071;28;19913;-81
2022/09/13 04:09:44;;;;;;;;;;;11.10;99.90;;;;;;5032912;28;19917;-81
2022/09/13 04:12:10;;;;;;;;;;;11.10;99.90;;;;;;5046824;28;20003;-81
2022/09/13 04:14:36;;;;;;;;;;;11.20;99.90;;;;;;5040335;28;20461;-81
2022/09/13 04:17:02;;;;;;;;;;;11.10;99.90;;;;;;5049581;28;20407;-81
2022/09/13 04:19:28;;;;;;;;;;;11.10;99.90;;;;;;5050347;28;20019;-80
2022/09/13 04:21:54;;;;;;;;;;;11.20;99.90;;;;;;5047664;28;19920;-80
2022/09/13 04:24:23;;;;;;;;;;;11.10;99.90;;;;;;5045137;28;19920;-81
2022/09/13 04:26:50;;;;;;;;;;;11.20;99.90;;;;;;5051415;28;19976;-81
2022/09/13 04:29:17;;;;;;;;;;;11.10;99.90;;;;;;5047101;28;19949;-81
2022/09/13 04:31:43;;;;;;;;;;;11.10;99.90;;;;;;5039160;28;19921;-81
2022/09/13 04:34:09;;;;;;;;;;;11.20;99.90;;;;;;5041273;28;20008;-81
2022/09/13 04:36:34;;;;;;;;;;;11.20;99.90;;;;;;5031255;28;19952;-81
2022/09/13 04:39:01;;;;;;;;;;;11.20;99.90;;;;;;5050034;28;19917;-81
2022/09/13 04:41:27;;;;;;;;;;;11.20;99.90;;;;;;5042357;28;20455;-80
2022/09/13 04:43:53;;;;;;;;;;;11.30;99.90;;;;;;5035801;28;20012;-81
2022/09/13 04:46:18;;;;;;;;;;;11.30;99.90;;;;;;5043765;28;19952;-80
2022/09/13 04:48:48;;;;;;;;;;;11.20;99.90;;;;;;5031915;28;19924;-80
2022/09/13 04:51:13;;;;;;;;;;;11.20;99.90;;;;;;5049534;28;19912;-80
2022/09/13 04:53:39;;;;;;;;;;;11.20;99.90;;;;;;5050897;28;19958;-81
2022/09/13 04:56:05;;;;;;;;;;;11.20;99.90;;;;;;5051200;28;19967;-81
2022/09/13 04:58:31;;;;;;;;;;;11.20;99.90;;;;;;5043635;28;19913;-78
2022/09/13 05:01:03;;;;;;;;;;;11.20;99.90;;;;;;5044088;28;19921;-80
2022/09/13 05:03:30;;;;;;;;;;;11.20;99.90;;;;;;5057972;28;19984;-79
2022/09/13 05:06:01;;;;;;;;;;;11.20;99.90;;;;;;5035793;28;19913;-80
2022/09/13 05:08:30;;;;;;;;;;;11.20;99.90;;;;;;5052846;28;19913;-79
2022/09/13 05:10:56;;;;;;;;;;;11.20;99.90;;;;;;5021909;28;19923;-80
2022/09/13 05:13:21;;;;;;;;;;;11.30;99.90;;;;;;5034464;28;19917;-79
2022/09/13 05:15:47;;;;;;;;;;;11.40;99.90;;;;;;5039131;28;19925;-80
2022/09/13 05:18:12;;;;;;;;;;;11.40;99.90;;;;;;5049870;28;20428;-78
2022/09/13 05:20:38;;;;;;;;;;;11.40;99.90;;;;;;5036942;28;20023;-81
2022/09/13 05:23:04;;;;;;;;;;;11.30;99.90;;;;;;5045588;28;19917;-79
2022/09/13 05:25:29;;;;;;;;;;;11.40;99.90;;;;;;5047846;28;20391;-79
2022/09/13 05:27:55;;;;;;;;;;;11.40;99.90;;;;;;5052492;28;19921;-77
2022/09/13 05:30:20;;;;;;;;;;;11.40;99.90;;;;;;5047205;28;19957;-81
2022/09/13 05:32:46;;;;;;;;;;;11.50;99.90;;;;;;5050164;28;19917;-79
2022/09/13 05:35:12;;;;;;;;;;;11.50;99.90;;;;;;5047604;28;19971;-81
2022/09/13 05:37:38;;;;;;;;;;;11.60;99.90;;;;;;5036777;28;19913;-80
2022/09/13 05:40:04;;;;;;;;;;;11.60;99.90;;;;;;5039981;28;19921;-80
2022/09/13 05:42:29;;;;;;;;;;;11.60;99.90;;;;;;5051144;28;19920;-78
2022/09/13 05:44:56;;;;;;;;;;;11.70;99.90;;;;;;5051899;28;19970;-81
2022/09/13 05:47:21;;;;;;;;;;;11.80;99.90;;;;;;5051729;28;19917;-79
2022/09/13 05:49:47;;;;;;;;;;;11.90;99.90;;;;;;5035362;28;20452;-80
2022/09/13 05:52:13;;;;;;;;;;;11.90;99.90;;;;;;5051083;28;19920;-80
2022/09/13 05:54:38;;;;;;;;;;;12.00;99.90;;;;;;5034758;28;19947;-79
2022/09/13 05:57:04;;;;;;;;;;;12.10;99.90;;;;;;5047990;28;19988;-79
2022/09/13 05:59:30;;;;;;;;;;;12.10;99.90;;;;;;5027500;28;19921;-80
2022/09/13 06:01:56;;;;;;;;;;;12.20;99.90;;;;;;5048107;28;19927;-78
2022/09/13 06:04:22;;;;;;;;;;;12.30;99.90;;;;;;5051063;28;20015;-80
2022/09/13 06:06:47;;;;;;;;;;;12.40;99.90;;;;;;5052818;28;19919;-78
2022/09/13 06:09:13;;;;;;;;;;;12.50;99.90;;;;;;5063709;28;19988;-79
2022/09/13 06:11:39;;;;;;;;;;;12.60;99.90;;;;;;5038580;28;19917;-79
2022/09/13 06:14:04;;;;;;;;;;;12.80;99.90;;;;;;5039639;28;19928;-79
2022/09/13 06:16:30;;;;;;;;;;;12.90;99.90;;;;;;5036670;28;20389;-80
2022/09/13 06:18:57;;;;;;;;;;;13.00;99.90;;;;;;5037071;28;19939;-81
2022/09/13 06:21:22;;;;;;;;;;;13.10;99.90;;;;;;5060879;28;19921;-80
2022/09/13 06:23:52;;;;;;;;;;;13.20;99.90;;;;;;5052328;28;20644;-80
2022/09/13 06:26:20;;;;;;;;;;;13.40;99.90;;;;;;5034805;28;20297;-80
2022/09/13 06:28:49;;;;;;;;;;;13.40;99.90;;;;;;5050559;28;20361;-81
2022/09/13 06:31:16;;;;;;;;;;;13.50;99.90;;;;;;5061023;28;20007;-79
2022/09/13 06:33:42;;;;;;;;;;;13.60;99.90;;;;;;5052620;28;20392;-79
2022/09/13 06:36:13;;;;;;;;;;;13.70;99.90;;;;;;5060259;28;19919;-79
2022/09/13 06:38:39;;;;;;;;;;;13.90;99.90;;;;;;5047555;28;19913;-80
2022/09/13 06:41:06;;;;;;;;;;;13.90;99.90;;;;;;5020924;28;19921;-79
2022/09/13 06:43:32;;;;;;;;;;;14.00;99.90;;;;;;5053272;28;20008;-80
2022/09/13 06:45:58;;;;;;;;;;;14.10;99.90;;;;;;5036867;28;19960;-80
2022/09/13 06:48:24;;;;;;;;;;;14.20;99.90;;;;;;5039738;28;20475;-81
2022/09/13 06:50:49;;;;;;;;;;;14.20;99.90;;;;;;5050205;28;19920;-81
2022/09/13 06:53:15;;;;;;;;;;;14.20;99.90;;;;;;5047525;28;19917;-81
2022/09/13 06:55:41;;;;;;;;;;;14.20;99.90;;;;;;5031692;28;19921;-80
2022/09/13 06:58:06;;;;;;;;;;;14.30;99.90;;;;;;5052385;28;20285;-80
2022/09/13 07:00:32;;;;;;;;;;;14.30;99.90;;;;;;5034284;28;19924;-80
2022/09/13 07:02:59;;;;;;;;;;;14.30;99.90;;;;;;5050635;28;20387;-81
2022/09/13 07:05:25;;;;;;;;;;;14.30;99.90;;;;;;5052498;28;19917;-80
2022/09/13 07:07:51;;;;;;;;;;;14.30;99.90;;;;;;5053244;28;19964;-80
2022/09/13 07:10:16;;;;;;;;;;;14.40;99.90;;;;;;5034768;28;19917;-80
2022/09/13 07:12:42;;;;;;;;;;;14.50;99.90;;;;;;5041868;28;19921;-80
2022/09/13 07:15:08;;;;;;;;;;;14.60;99.90;;;;;;5032453;28;19956;-80
2022/09/13 07:17:33;;;;;;;;;;;14.60;99.90;;;;;;5050624;28;20019;-81
2022/09/13 07:19:59;;;;;;;;;;;14.70;99.90;;;;;;5032848;28;19920;-81
2022/09/13 07:22:26;;;;;;;;;;;14.70;99.90;;;;;;5036121;28;19917;-81
2022/09/13 07:24:52;;;;;;;;;;;15.00;99.90;;;;;;5052674;28;19927;-80
2022/09/13 07:27:18;;;;;;;;;;;15.20;99.90;;;;;;5053024;28;19921;-81
2022/09/13 07:29:43;;;;;;;;;;;15.50;99.90;;;;;;5052014;28;19924;-80
2022/09/13 07:32:09;;;;;;;;;;;15.90;99.90;;;;;;5052908;28;19925;-80
2022/09/13 07:34:34;;;;;;;;;;;16.30;99.90;;;;;;5052970;28;19916;-79
2022/09/13 07:37:01;;;;;;;;;;;16.70;99.90;;;;;;5034721;28;20378;-80
2022/09/13 07:39:26;;;;;;;;;;;16.80;99.90;;;;;;5050211;28;19960;-80
2022/09/13 07:41:52;;;;;;;;;;;16.80;99.90;;;;;;5052901;28;19924;-80
2022/09/13 07:44:18;;;;;;;;;;;16.80;99.90;;;;;;5023800;28;19917;-79
2022/09/13 07:46:44;;;;;;;;;;;16.80;99.90;;;;;;5044725;28;19913;-80
2022/09/13 07:49:10;;;;;;;;;;;16.90;99.90;;;;;;5051993;28;20405;-80
2022/09/13 07:51:38;;;;;;;;;;;16.90;99.90;;;;;;5051475;28;19917;-80
2022/09/13 07:54:05;;;;;;;;;;;16.90;99.90;;;;;;5052155;28;19917;-80
2022/09/13 07:56:32;;;;;;;;;;;16.80;99.90;;;;;;5051350;28;19913;-80
2022/09/13 07:58:59;;;;;;;;;;;16.70;99.90;;;;;;5051178;28;19956;-80
2022/09/13 08:01:29;;;;;;;;;;;16.70;99.90;;;;;;5050613;28;19935;-80
2022/09/13 08:03:59;;;;;;;;;;;16.70;99.90;;;;;;5051637;28;19920;-80
2022/09/13 08:06:25;;;;;;;;;;;16.70;99.90;;;;;;5050489;28;19980;-80
2022/09/13 08:08:51;;;;;;;;;;;16.70;99.90;;;;;;5051846;28;20368;-80
2022/09/13 08:11:18;;;;;;;;;;;16.70;99.90;;;;;;5051693;28;19912;-80
2022/09/13 08:13:47;;;;;;;;;;;16.80;99.90;;;;;;5059376;28;20269;-80
2022/09/13 08:16:13;;;;;;;;;;;16.80;99.90;;;;;;5051177;28;20342;-80
2022/09/13 08:18:45;;;;;;;;;;;16.90;99.90;;;;;;5052006;28;19916;-80
2022/09/13 08:21:11;;;;;;;;;;;16.80;99.90;;;;;;5047402;28;20001;-81
2022/09/13 08:23:37;;;;;;;;;;;16.80;99.90;;;;;;5052065;28;20403;-80
2022/09/13 08:26:03;;;;;;;;;;;16.90;99.90;;;;;;5055895;28;19912;-79
2022/09/13 08:28:29;;;;;;;;;;;16.80;99.90;;;;;;5051846;28;19952;-81
2022/09/13 08:30:54;;;;;;;;;;;16.90;99.90;;;;;;5055383;28;19924;-80
2022/09/13 08:33:20;;;;;;;;;;;16.90;99.90;;;;;;5053354;28;19963;-80
2022/09/13 08:35:49;;;;;;;;;;;17.10;99.90;;;;;;5054249;28;19927;-81
2022/09/13 08:38:15;;;;;;;;;;;17.20;99.90;;;;;;5063553;28;20004;-79
2022/09/13 08:40:42;;;;;;;;;;;17.20;99.90;;;;;;5059821;28;19952;-81
2022/09/13 08:43:14;;;;;;;;;;;17.20;99.90;;;;;;5067520;28;20003;-81
2022/09/13 08:45:40;;;;;;;;;;;17.40;99.90;;;;;;5063041;28;19913;-80
2022/09/13 08:48:15;;;;;;;;;;;17.60;99.90;;;;;;5055939;28;19927;-79
2022/09/13 08:50:43;;;;;;;;;;;17.60;99.90;;;;;;5049682;28;19920;-81
2022/09/13 08:53:21;;;;;;;;;;;17.80;99.90;;;;;;5066236;28;20437;-81
2022/09/13 08:55:58;;;;;;;;;;;17.70;99.90;;;;;;5051928;28;19979;-82
2022/09/13 08:58:33;;;;;;;;;;;17.60;99.90;;;;;;5047657;28;19917;-81
2022/09/13 09:01:07;;;;;;;;;;;17.50;99.90;;;;;;5062150;28;19921;-81
2022/09/13 09:03:40;;;;;;;;;;;17.70;99.90;;;;;;5038657;28;19985;-81
2022/09/13 09:06:11;;;;;;;;;;;17.80;99.90;;;;;;5064469;28;19913;-79
2022/09/13 09:08:40;;;;;;;;;;;17.90;99.90;;;;;;5056113;28;19936;-80
2022/09/13 09:11:27;;;;;;;;;;;18.10;99.90;;;;;;5051561;28;19916;-80
2022/09/13 09:14:11;;;;;;;;;;;18.10;99.90;;;;;;5052300;28;19986;-80
2022/09/13 09:16:40;;;;;;;;;;;18.20;99.90;;;;;;5056411;28;19985;-81
2022/09/13 09:19:11;;;;;;;;;;;18.30;99.90;;;;;;5058642;28;19943;-81
2022/09/13 09:21:37;;;;;;;;;;;18.40;99.90;;;;;;5055464;28;19917;-79
2022/09/13 09:24:03;;;;;;;;;;;18.40;99.90;;;;;;5053381;28;19948;-80
2022/09/13 09:26:29;;;;;;;;;;;18.50;99.90;;;;;;5063941;28;19917;-79
2022/09/13 09:28:59;;;;;;;;;;;18.40;99.90;;;;;;5071046;28;19999;-81
2022/09/13 09:31:25;;;;;;;;;;;18.40;99.90;;;;;;5039333;28;19921;-81
2022/09/13 09:34:07;;;;;;;;;;;18.30;99.90;;;;;;5060155;28;19917;-79
2022/09/13 09:36:42;;;;;;;;;;;18.30;99.90;;;;;;5051268;28;19917;-82
2022/09/13 09:39:11;;;;;;;;;;;18.20;99.90;;;;;;5068261;28;19913;-81
2022/09/13 09:41:37;;;;;;;;;;;18.20;99.90;;;;;;5052859;28;19925;-81
2022/09/13 09:44:19;;;;;;;;;;;18.20;99.90;;;;;;5057201;28;20577;-82
2022/09/13 09:46:48;;;;;;;;;;;18.10;99.90;;;;;;5058233;28;19913;-79
2022/09/13 09:52:05;;;;;;;;;;;18.20;99.90;;;;;;5049365;28;20019;-79
2022/09/13 09:54:31;;;;;;;;;;;18.40;99.90;;;;;;5042529;28;19935;-82
2022/09/13 09:56:57;;;;;;;;;;;18.60;99.90;;;;;;5052024;28;19913;-79
2022/09/13 09:59:28;;;;;;;;;;;18.70;99.90;;;;;;5062993;28;20451;-81
2022/09/13 10:01:56;;;;;;;;;;;18.70;99.90;;;;;;5034060;28;19956;-79
2022/09/13 10:04:23;;;;;;;;;;;18.70;99.90;;;;;;5058219;28;20746;-80
2022/09/13 10:06:48;;;;;;;;;;;18.60;99.90;;;;;;5058943;28;19916;-79
2022/09/13 10:09:18;;;;;;;;;;;18.60;99.90;;;;;;5050258;28;19917;-80
2022/09/13 10:11:44;;;;;;;;;;;18.60;99.90;;;;;;5046248;28;19923;-80
2022/09/13 10:14:30;;;;;;;;;;;18.60;99.90;;;;;;5030235;28;20356;-80
2022/09/13 10:17:11;;;;;;;;;;;18.60;99.90;;;;;;5042848;28;19913;-81
2022/09/13 10:19:37;;;;;;;;;;;18.60;99.90;;;;;;5038318;28;19917;-79
2022/09/13 10:22:10;;;;;;;;;;;18.50;99.90;;;;;;5049828;28;19928;-80
2022/09/13 10:24:36;;;;;;;;;;;18.50;99.90;;;;;;5042068;28;19916;-82
2022/09/13 10:27:05;;;;;;;;;;;18.50;99.90;;;;;;5051151;28;19913;-82
2022/09/13 10:29:31;;;;;;;;;;;18.60;99.90;;;;;;5042440;28;20389;-82
2022/09/13 10:31:57;;;;;;;;;;;18.60;99.90;;;;;;5052090;28;19917;-82
2022/09/13 10:34:28;;;;;;;;;;;18.60;99.90;;;;;;5054497;28;19915;-81
2022/09/13 10:37:03;;;;;;;;;;;18.70;99.90;;;;;;5029936;28;19917;-81
2022/09/13 10:39:30;;;;;;;;;;;18.80;99.90;;;;;;5050456;28;19913;-79
2022/09/13 10:41:57;;;;;;;;;;;18.90;99.90;;;;;;5049112;28;20013;-80
2022/09/13 10:44:32;;;;;;;;;;;18.90;99.90;;;;;;5048114;28;19925;-82
2022/09/13 10:46:59;;;;;;;;;;;18.90;99.90;;;;;;5050436;28;19913;-80
2022/09/13 10:49:35;;;;;;;;;;;19.00;99.90;;;;;;5042825;28;20558;-82
2022/09/13 10:52:01;;;;;;;;;;;19.10;99.90;;;;;;5047239;28;20357;-81
2022/09/13 10:54:26;;;;;;;;;;;19.10;99.90;;;;;;5040546;28;19925;-81
2022/09/13 10:56:52;;;;;;;;;;;19.20;99.90;;;;;;5031338;28;19924;-81
2022/09/13 10:59:17;;;;;;;;;;;19.30;99.90;;;;;;5052177;28;19958;-81
2022/09/13 11:01:51;;;;;;;;;;;19.40;99.90;;;;;;5056104;28;19913;-80
2022/09/13 11:04:28;;;;;;;;;;;19.50;99.90;;;;;;5046825;28;19920;-80
2022/09/13 11:07:02;;;;;;;;;;;19.50;99.90;;;;;;5045666;28;19996;-81
2022/09/13 11:09:28;;;;;;;;;;;19.60;99.90;;;;;;5045092;28;19960;-81
2022/09/13 11:12:02;;;;;;;;;;;19.70;99.90;;;;;;5039103;28;19909;-81
2022/09/13 11:14:31;;;;;;;;;;;19.80;99.90;;;;;;5038942;28;19923;-81
2022/09/13 11:17:15;;;;;;;;;;;19.80;99.90;;;;;;5040588;28;19966;-81
2022/09/13 11:19:50;;;;;;;;;;;19.90;99.90;;;;;;5049641;28;19917;-78
2022/09/13 11:22:22;;;;;;;;;;;20.00;99.90;;;;;;5040059;28;19912;-80
2022/09/13 11:24:50;;;;;;;;;;;19.90;99.90;;;;;;5019590;28;19970;-81
2022/09/13 11:27:23;;;;;;;;;;;19.90;99.90;;;;;;5040026;28;19913;-80
2022/09/13 11:29:54;;;;;;;;;;;19.90;99.90;;;;;;5044630;28;20373;-80
2022/09/13 11:32:39;;;;;;;;;;;20.00;99.90;;;;;;5043337;28;19944;-79
2022/09/13 11:35:19;;;;;;;;;;;20.00;99.90;;;;;;5024872;28;19913;-80
2022/09/13 11:37:56;;;;;;;;;;;20.10;99.90;;;;;;5042761;28;20377;-81
2022/09/13 11:40:22;;;;;;;;;;;20.30;99.90;;;;;;5041686;28;19917;-80
2022/09/13 11:42:53;;;;;;;;;;;20.50;99.90;;;;;;5047454;28;20003;-80
2022/09/13 11:45:21;;;;;;;;;;;20.50;99.90;;;;;;5047586;28;19959;-81
2022/09/13 11:47:56;;;;;;;;;;;20.60;99.90;;;;;;5044641;28;20008;-80
2022/09/13 11:50:26;;;;;;;;;;;20.70;99.90;;;;;;5049244;28;19920;-79
2022/09/13 11:53:18;;;;;;;;;;;20.80;99.90;;;;;;5034215;28;19916;-80
2022/09/13 11:55:49;;;;;;;;;;;21.00;99.90;;;;;;5048001;28;19923;-80
2022/09/13 11:58:18;;;;;;;;;;;21.00;99.90;;;;;;5031271;28;19921;-79
2022/09/13 12:00:52;;;;;;;;;;;21.00;99.90;;;;;;5045894;28;19966;-79
2022/09/13 12:03:36;;;;;;;;;;;21.00;99.90;;;;;;5043246;28;19924;-79
2022/09/13 12:06:05;;;;;;;;;;;21.10;99.90;;;;;;5049383;28;19920;-78
2022/09/13 12:08:34;;;;;;;;;;;21.10;99.90;;;;;;5054366;28;19913;-80
2022/09/13 12:11:09;;;;;;;;;;;21.30;99.90;;;;;;5058635;28;19927;-79
2022/09/13 12:13:52;;;;;;;;;;;21.40;99.90;;;;;;5054361;28;19916;-80
2022/09/13 12:16:24;;;;;;;;;;;21.40;99.90;;;;;;5043949;28;19917;-78
2022/09/13 12:18:51;;;;;;;;;;;21.50;99.90;;;;;;5048767;28;19913;-80
2022/09/13 12:21:25;;;;;;;;;;;21.60;99.90;;;;;;5046105;28;19964;-79
2022/09/13 12:24:02;;;;;;;;;;;21.70;99.90;;;;;;5034226;28;20035;-79
2022/09/13 12:26:44;;;;;;;;;;;21.70;99.90;;;;;;5050338;28;19912;-78
2022/09/13 12:29:17;;;;;;;;;;;21.90;99.90;;;;;;5032226;28;20476;-80
2022/09/13 12:31:43;;;;;;;;;;;22.00;99.90;;;;;;5043464;28;20004;-81
2022/09/13 12:34:14;;;;;;;;;;;22.00;99.90;;;;;;5045032;28;20062;-80
2022/09/13 12:36:58;;;;;;;;;;;22.00;99.90;;;;;;5043779;28;19913;-79
2022/09/13 12:39:39;;;;;;;;;;;21.90;99.90;;;;;;5038408;28;19913;-79
2022/09/13 12:42:23;;;;;;;;;;;21.90;99.90;;;;;;5054641;28;19944;-79
2022/09/13 12:45:07;;;;;;;;;;;22.00;99.90;;;;;;5030646;28;19921;-79
2022/09/13 12:47:45;;;;;;;;;;;22.10;99.90;;;;;;5036899;28;19917;-80
2022/09/13 12:50:31;;;;;;;;;;;22.10;99.90;;;;;;5033799;28;20427;-80
2022/09/13 12:53:03;;;;;;;;;;;22.20;99.90;;;;;;5041723;28;19920;-79
2022/09/13 12:55:36;;;;;;;;;;;22.20;99.90;;;;;;5034198;28;19943;-79
2022/09/13 12:58:09;;;;;;;;;;;22.20;99.90;;;;;;5050762;28;20231;-79
2022/09/13 13:00:41;;;;;;;;;;;22.30;99.90;;;;;;5050965;28;20652;-80
2022/09/13 13:03:13;;;;;;;;;;;22.40;99.90;;;;;;5051030;28;19917;-81
2022/09/13 13:05:41;;;;;;;;;;;22.40;99.90;;;;;;5049260;28;20408;-79
2022/09/13 13:08:22;;;;;;;;;;;22.30;99.90;;;;;;5037814;28;19914;-79
2022/09/13 13:11:05;;;;;;;;;;;22.30;99.90;;;;;;5048389;28;19919;-79
2022/09/13 13:13:38;;;;;;;;;;;22.20;99.90;;;;;;5029614;28;20004;-79
2022/09/13 13:16:24;;;;;;;;;;;22.10;99.90;;;;;;5044406;28;19916;-80
2022/09/13 13:18:51;;;;;;;;;;;22.10;99.90;;;;;;5030592;28;19913;-80
2022/09/13 13:21:35;;;;;;;;;;;22.00;99.90;;;;;;5047483;28;19996;-80
2022/09/13 13:24:17;;;;;;;;;;;22.00;99.90;;;;;;5039169;28;20442;-80
2022/09/13 13:26:53;;;;;;;;;;;22.00;99.90;;;;;;5052377;28;19917;-79
2022/09/13 13:29:19;;;;;;;;;;;22.00;99.90;;;;;;5048505;28;19920;-79
2022/09/13 13:32:06;;;;;;;;;;;22.00;99.90;;;;;;5036380;28;19913;-79
2022/09/13 13:34:32;;;;;;;;;;;22.00;99.90;;;;;;5060200;28;19920;-81
2022/09/13 13:37:00;;;;;;;;;;;21.90;99.90;;;;;;5054016;28;20442;-80
2022/09/13 13:39:25;;;;;;;;;;;21.90;99.90;;;;;;5057836;28;19924;-81
2022/09/13 13:41:55;;;;;;;;;;;22.00;99.90;;;;;;5056245;28;20358;-81
2022/09/13 13:44:20;;;;;;;;;;;22.00;99.90;;;;;;5051721;28;19912;-81
2022/09/13 13:46:47;;;;;;;;;;;22.00;99.90;;;;;;5059522;28;19920;-81
2022/09/13 13:49:31;;;;;;;;;;;22.00;99.90;;;;;;5068635;28;19913;-80
2022/09/13 13:52:09;;;;;;;;;;;21.90;99.90;;;;;;5044148;28;19928;-80
2022/09/13 13:54:41;;;;;;;;;;;21.80;99.90;;;;;;5054230;28;19964;-80
2022/09/13 13:57:23;;;;;;;;;;;21.70;99.90;;;;;;5051989;28;19919;-81
2022/09/13 13:59:50;;;;;;;;;;;21.60;99.90;;;;;;5041202;28;19917;-80
2022/09/13 14:02:20;;;;;;;;;;;21.40;99.90;;;;;;5049542;28;19917;-80
2022/09/13 14:04:54;;;;;;;;;;;21.30;99.90;;;;;;5050629;28;19920;-80
2022/09/13 14:07:31;;;;;;;;;;;21.20;99.90;;;;;;5042061;28;20492;-80
2022/09/13 14:10:00;;;;;;;;;;;21.00;99.90;;;;;;5034245;28;19958;-80
2022/09/13 14:12:46;;;;;;;;;;;20.90;99.90;;;;;;5048072;28;19912;-80
2022/09/13 14:15:37;;;;;;;;;;;20.90;99.90;;;;;;5046833;28;19924;-80
2022/09/13 14:18:18;;;;;;;;;;;20.80;99.90;;;;;;5053243;28;19917;-81
2022/09/13 14:21:04;;;;;;;;;;;20.80;99.90;;;;;;5054115;28;19917;-81
2022/09/13 14:23:30;;;;;;;;;;;20.80;99.90;;;;;;5038618;28;19935;-81
2022/09/13 14:25:59;;;;;;;;;;;20.80;99.90;;;;;;5048821;28;19916;-80
2022/09/13 14:28:25;;;;;;;;;;;20.70;99.90;;;;;;5057879;28;19924;-81
2022/09/13 14:30:56;;;;;;;;;;;20.60;99.90;;;;;;5063467;28;19917;-81
2022/09/13 14:33:24;;;;;;;;;;;20.50;99.90;;;;;;5058835;28;19934;-81
2022/09/13 14:35:56;;;;;;;;;;;20.40;99.90;;;;;;5054025;28;20373;-81